Time;durP1;ratioP1;P1;durP2;ratioP2;P2;SDS_P1;SDS_P2;PMS_P1;PMS_P2;Temp;Humidity;BMP_temperature;BMP_pressure;BME280_temperature;BME280_humidity;BME280_pressure;Samples;Min_cycle;Max_cycle;Signal;HPM_P1;HPM_P2
2021/06/21 00:02:26;;;;;;;3.13;2.93;;;25.10;38.40;;;;;;4996568;28;20178;-78
2021/06/21 00:04:54;;;;;;;2.87;2.67;;;25.00;38.40;;;;;;4996424;28;20313;-78
2021/06/21 00:07:20;;;;;;;5.23;2.60;;;25.10;38.40;;;;;;4996258;28;20873;-79
2021/06/21 00:09:47;;;;;;;3.17;2.87;;;25.10;38.40;;;;;;5014269;28;20416;-78
2021/06/21 00:12:15;;;;;;;5.97;3.37;;;25.10;38.50;;;;;;4995975;28;20447;-79
2021/06/21 00:14:41;;;;;;;3.80;2.97;;;25.10;38.50;;;;;;4995886;28;20440;-78
2021/06/21 00:17:07;;;;;;;3.80;2.87;;;25.10;38.50;;;;;;4995674;28;20420;-77
2021/06/21 00:19:33;;;;;;;2.93;2.70;;;25.00;38.40;;;;;;5013350;28;20420;-80
2021/06/21 00:21:59;;;;;;;2.80;2.63;;;25.10;38.50;;;;;;5012683;28;20412;-80
2021/06/21 00:24:25;;;;;;;4.47;3.00;;;25.00;38.50;;;;;;4995225;28;20197;-79
2021/06/21 00:26:52;;;;;;;3.00;2.70;;;25.00;38.40;;;;;;5012877;28;20793;-78
2021/06/21 00:29:19;;;;;;;3.17;2.90;;;25.10;38.50;;;;;;5012907;28;20375;-78
2021/06/21 00:31:47;;;;;;;2.93;2.53;;;25.00;38.40;;;;;;5012156;28;20423;-79
2021/06/21 00:34:14;;;;;;;3.00;2.70;;;25.00;38.40;;;;;;4994957;28;20541;-79
2021/06/21 00:36:39;;;;;;;5.20;2.60;;;25.00;38.40;;;;;;4994997;28;20427;-79
2021/06/21 00:39:07;;;;;;;3.10;2.50;;;25.00;38.40;;;;;;4995696;28;20788;-79
2021/06/21 00:41:34;;;;;;;3.50;2.70;;;25.00;38.40;;;;;;4997726;28;20345;-80
2021/06/21 00:44:00;;;;;;;3.20;2.90;;;25.00;38.40;;;;;;5015439;28;20489;-79
2021/06/21 00:46:27;;;;;;;3.77;2.90;;;25.00;38.40;;;;;;4997021;28;20432;-80
2021/06/21 00:48:55;;;;;;;2.93;2.57;;;25.00;38.30;;;;;;4996301;28;20420;-80
2021/06/21 00:51:23;;;;;;;3.80;2.77;;;25.00;38.20;;;;;;4996974;28;20435;-78
2021/06/21 00:53:49;;;;;;;3.97;2.90;;;25.00;38.10;;;;;;4964353;28;20813;-78
2021/06/21 00:56:17;;;;;;;2.57;2.37;;;25.00;38.80;;;;;;5015260;28;20937;-79
2021/06/21 00:58:44;;;;;;;3.20;2.77;;;25.00;38.30;;;;;;5014679;28;20459;-80
2021/06/21 01:01:10;;;;;;;3.27;2.67;;;24.90;38.20;;;;;;4996926;28;20538;-79
2021/06/21 01:03:37;;;;;;;2.50;2.33;;;25.00;38.20;;;;;;5014652;28;20416;-80
2021/06/21 01:06:03;;;;;;;2.70;2.50;;;24.90;38.20;;;;;;5014194;28;20173;-78
2021/06/21 01:08:29;;;;;;;4.70;2.90;;;25.00;38.10;;;;;;5014228;28;20468;-79
2021/06/21 01:10:57;;;;;;;2.63;2.40;;;25.00;38.10;;;;;;4996818;28;20419;-80
2021/06/21 01:13:31;;;;;;;5.03;3.27;;;24.90;38.20;;;;;;4996639;28;20671;-80
2021/06/21 01:16:03;;;;;;;4.30;3.00;;;24.90;38.00;;;;;;5013546;28;20435;-79
2021/06/21 01:18:33;;;;;;;3.83;2.80;;;25.00;38.00;;;;;;4997205;28;21056;-80
2021/06/21 01:21:17;;;;;;;2.90;2.43;;;24.90;37.90;;;;;;4996918;28;20455;-80
2021/06/21 01:24:31;;;;;;;2.93;2.73;;;24.90;37.90;;;;;;5014743;28;20511;-79
2021/06/21 01:27:28;;;;;;;2.63;2.43;;;24.90;37.90;;;;;;4996177;28;20990;-80
2021/06/21 01:30:12;;;;;;;2.90;2.60;;;24.90;37.90;;;;;;5001407;28;20420;-80
2021/06/21 01:32:45;;;;;;;3.10;2.80;;;24.90;37.90;;;;;;5014417;28;20815;-80
2021/06/21 01:35:37;;;;;;;2.77;2.57;;;24.90;37.90;;;;;;5013948;28;20927;-80
2021/06/21 01:38:26;;;;;;;3.03;2.60;;;24.90;37.90;;;;;;5013569;28;20435;-79
2021/06/21 01:40:57;;;;;;;4.10;2.50;;;24.90;37.90;;;;;;4962855;28;20428;-80
2021/06/21 01:43:30;;;;;;;3.83;3.00;;;24.90;37.90;;;;;;4995853;28;20498;-79
2021/06/21 01:45:58;;;;;;;4.83;2.80;;;24.90;37.90;;;;;;4996036;28;20431;-80
2021/06/21 01:48:26;;;;;;;6.57;3.20;;;24.90;38.00;;;;;;4980206;28;20475;-78
2021/06/21 01:51:01;;;;;;;2.80;2.60;;;24.90;37.80;;;;;;5013796;28;20420;-79
2021/06/21 01:53:30;;;;;;;2.40;2.30;;;24.90;37.90;;;;;;4996134;28;20426;-79
2021/06/21 01:56:06;;;;;;;4.13;2.87;;;24.90;38.00;;;;;;4995852;28;20424;-80
2021/06/21 01:58:36;;;;;;;3.90;3.60;;;24.90;37.90;;;;;;4995764;28;20432;-80
2021/06/21 02:01:07;;;;;;;4.23;3.03;;;24.90;37.90;;;;;;4996399;28;20436;-80
2021/06/21 02:03:35;;;;;;;2.70;2.50;;;24.90;37.90;;;;;;5013333;28;20408;-79
2021/06/21 02:06:02;;;;;;;3.00;2.80;;;24.90;37.90;;;;;;4995802;28;20482;-78
2021/06/21 02:08:32;;;;;;;4.70;3.07;;;24.90;37.90;;;;;;4996376;28;20887;-80
2021/06/21 02:11:01;;;;;;;3.17;2.73;;;24.90;38.00;;;;;;4996242;28;20470;-79
2021/06/21 02:13:28;;;;;;;2.77;2.50;;;24.90;37.80;;;;;;4996484;28;20439;-79
2021/06/21 02:15:55;;;;;;;2.87;2.63;;;24.90;37.90;;;;;;4996231;28;20417;-78
2021/06/21 02:18:22;;;;;;;3.10;2.87;;;24.90;37.80;;;;;;5013725;28;20534;-80
2021/06/21 02:20:50;;;;;;;2.60;2.40;;;24.90;37.90;;;;;;4995988;28;20456;-79
2021/06/21 02:23:18;;;;;;;4.73;2.87;;;24.90;37.90;;;;;;4996147;28;20476;-80
2021/06/21 02:25:48;;;;;;;2.90;2.63;;;24.90;37.80;;;;;;4996405;28;20456;-79
2021/06/21 02:28:16;;;;;;;2.87;2.67;;;24.90;37.80;;;;;;4999358;28;20460;-77
2021/06/21 02:30:42;;;;;;;3.03;2.80;;;24.90;37.80;;;;;;4999898;28;20420;-78
2021/06/21 02:33:11;;;;;;;3.37;3.17;;;24.90;37.70;;;;;;5017417;28;20416;-80
2021/06/21 02:35:40;;;;;;;3.00;2.70;;;24.90;38.50;;;;;;5000623;28;20201;-78
2021/06/21 02:38:06;;;;;;;2.97;2.77;;;24.90;37.80;;;;;;4999991;28;20486;-80
2021/06/21 02:40:34;;;;;;;3.93;3.30;;;24.90;37.70;;;;;;5017789;28;20181;-78
2021/06/21 02:43:12;;;;;;;3.50;2.80;;;24.90;37.70;;;;;;4999587;28;20207;-79
2021/06/21 02:45:38;;;;;;;5.43;3.20;;;24.90;37.80;;;;;;5000917;28;20443;-77
2021/06/21 02:48:06;;;;;;;5.70;3.00;;;24.90;37.80;;;;;;5016964;28;20988;-79
2021/06/21 02:50:34;;;;;;;2.97;2.77;;;24.90;37.80;;;;;;5016579;28;20266;-80
2021/06/21 02:53:15;;;;;;;6.10;2.50;;;24.90;37.70;;;;;;4998711;28;20447;-81
2021/06/21 02:56:09;;;;;;;3.40;2.53;;;24.90;37.70;;;;;;4999168;28;20958;-79
2021/06/21 02:58:41;;;;;;;5.67;2.87;;;24.90;37.70;;;;;;5015945;28;20408;-77
2021/06/21 03:01:14;;;;;;;4.07;2.60;;;24.80;37.60;;;;;;4998503;28;20420;-80
2021/06/21 03:03:53;;;;;;;4.57;2.50;;;24.80;37.50;;;;;;4998795;28;20435;-82
2021/06/21 03:06:19;;;;;;;4.00;3.60;;;24.80;37.50;;;;;;5015652;28;20442;-77
2021/06/21 03:08:46;;;;;;;3.77;2.93;;;24.80;37.40;;;;;;4998239;28;20447;-78
2021/06/21 03:11:15;;;;;;;3.63;3.10;;;24.80;37.50;;;;;;4997797;28;20774;-79
2021/06/21 03:13:43;;;;;;;3.97;3.60;;;24.80;37.50;;;;;;4997524;28;20452;-80
2021/06/21 03:16:09;;;;;;;3.23;2.80;;;24.80;37.50;;;;;;4997272;28;20427;-78
2021/06/21 03:18:39;;;;;;;3.30;2.90;;;24.90;37.60;;;;;;4997744;28;20424;-79
2021/06/21 03:21:05;;;;;;;3.87;3.10;;;24.80;37.50;;;;;;4997607;28;20478;-79
2021/06/21 03:23:32;;;;;;;3.40;3.20;;;24.80;37.50;;;;;;4997410;28;20780;-79
2021/06/21 03:26:03;;;;;;;5.30;3.23;;;24.80;37.40;;;;;;5014186;28;20421;-78
2021/06/21 03:28:30;;;;;;;3.20;3.00;;;24.80;37.40;;;;;;4996812;28;20464;-79
2021/06/21 03:31:03;;;;;;;3.70;3.33;;;24.80;37.40;;;;;;5014657;28;20973;-80
2021/06/21 03:33:29;;;;;;;3.53;3.23;;;24.80;37.40;;;;;;4996945;28;20443;-79
2021/06/21 03:35:55;;;;;;;3.90;3.60;;;24.80;37.40;;;;;;5014240;28;20495;-80
2021/06/21 03:38:26;;;;;;;3.80;3.40;;;24.80;37.50;;;;;;4996531;28;20999;-79
2021/06/21 03:40:57;;;;;;;4.90;3.73;;;24.80;37.40;;;;;;4990364;28;20424;-79
2021/06/21 03:43:24;;;;;;;3.60;3.40;;;24.80;37.50;;;;;;4996989;28;20420;-78
2021/06/21 03:45:53;;;;;;;3.10;2.80;;;24.80;37.40;;;;;;5013665;28;20907;-79
2021/06/21 03:48:19;;;;;;;3.47;3.27;;;24.80;37.30;;;;;;5013851;28;20479;-78
2021/06/21 03:50:46;;;;;;;3.70;3.40;;;24.80;37.40;;;;;;5013561;28;20416;-78
2021/06/21 03:53:13;;;;;;;3.20;2.90;;;24.80;38.10;;;;;;5013169;28;20409;-79
2021/06/21 03:55:39;;;;;;;4.10;3.17;;;24.80;37.30;;;;;;4995595;28;20447;-78
2021/06/21 03:58:05;;;;;;;3.37;3.13;;;24.80;37.30;;;;;;4996264;28;20507;-80
2021/06/21 04:00:42;;;;;;;3.07;2.97;;;24.80;37.30;;;;;;4998270;28;20416;-81
2021/06/21 04:03:11;;;;;;;3.43;3.13;;;24.80;37.30;;;;;;5015670;28;20196;-79
2021/06/21 04:05:39;;;;;;;3.27;3.07;;;24.80;37.30;;;;;;4982438;28;20447;-80
2021/06/21 04:08:10;;;;;;;4.50;2.80;;;24.80;37.20;;;;;;4998184;28;20987;-80
2021/06/21 04:10:39;;;;;;;3.60;3.40;;;24.80;37.20;;;;;;5015622;28;20440;-80
2021/06/21 04:13:06;;;;;;;2.90;2.80;;;24.80;37.20;;;;;;5015720;28;20450;-81
2021/06/21 04:15:33;;;;;;;4.37;3.37;;;24.80;37.10;;;;;;4996967;28;20450;-80
2021/06/21 04:18:17;;;;;;;3.93;3.00;;;24.80;37.30;;;;;;4997685;28;20420;-80
2021/06/21 04:20:44;;;;;;;3.03;2.83;;;24.80;37.30;;;;;;4997980;28;20185;-80
2021/06/21 04:23:18;;;;;;;6.37;3.27;;;24.80;37.30;;;;;;4997835;28;20436;-79
2021/06/21 04:25:44;;;;;;;3.33;3.10;;;24.80;37.40;;;;;;4996999;28;20455;-79
2021/06/21 04:28:12;;;;;;;6.17;3.30;;;24.80;37.30;;;;;;4996204;28;21290;-79
2021/06/21 04:30:39;;;;;;;3.83;3.00;;;24.80;37.50;;;;;;4979851;28;20656;-78
2021/06/21 04:33:05;;;;;;;8.83;3.40;;;24.70;37.30;;;;;;4995972;28;20432;-80
2021/06/21 04:35:37;;;;;;;8.73;3.97;;;24.70;37.50;;;;;;4995247;28;20475;-81
2021/06/21 04:41:35;;;;;;;5.73;3.57;;;24.60;37.40;;;;;;4993297;28;20420;-78
2021/06/21 04:44:01;;;;;;;4.23;3.40;;;24.50;37.40;;;;;;5009749;28;20429;-80
2021/06/21 04:46:30;;;;;;;7.67;3.70;;;24.50;37.40;;;;;;4977734;28;20447;-81
2021/06/21 04:48:56;;;;;;;6.73;4.03;;;24.50;37.40;;;;;;4994248;28;20440;-81
2021/06/21 04:51:23;;;;;;;4.13;3.43;;;24.50;37.40;;;;;;4976693;28;20924;-79
2021/06/21 04:53:49;;;;;;;5.30;3.67;;;24.50;37.50;;;;;;4976100;28;20941;-79
2021/06/21 04:56:53;;;;;;;3.97;3.20;;;24.50;37.40;;;;;;4976894;28;20444;-79
2021/06/21 04:59:54;;;;;;;6.63;4.00;;;24.50;37.10;;;;;;4976732;28;20429;-78
2021/06/21 05:03:09;;;;;;;8.93;4.10;;;24.50;36.70;;;;;;4976517;28;20433;-79
2021/06/21 05:08:59;;;;;;;6.43;4.20;;;24.40;36.70;;;;;;5013263;28;20429;-79
2021/06/21 05:25:04;;;;;;;4.93;3.60;;;24.30;36.40;;;;;;5013948;28;20504;-78
2021/06/21 05:31:27;;;;;;;4.77;3.20;;;24.30;36.40;;;;;;4991595;28;20515;-80
2021/06/21 05:34:20;;;;;;;8.27;3.20;;;24.30;36.50;;;;;;4999375;28;20452;-79
2021/06/21 05:36:49;;;;;;;3.70;3.30;;;24.30;36.40;;;;;;4995572;28;20502;-80
2021/06/21 05:39:21;;;;;;;3.80;3.20;;;24.30;36.40;;;;;;4995535;28;20511;-78
2021/06/21 05:42:22;;;;;;;4.10;3.70;;;24.20;36.40;;;;;;4996401;28;20475;-78
2021/06/21 05:45:02;;;;;;;7.47;3.43;;;24.20;36.50;;;;;;4995730;28;20490;-80
2021/06/21 05:48:05;;;;;;;4.47;3.30;;;24.30;36.70;;;;;;4958796;28;20889;-80
2021/06/21 05:50:51;;;;;;;4.50;3.43;;;24.20;36.50;;;;;;5010363;28;20424;-80
2021/06/21 05:53:18;;;;;;;4.67;3.10;;;24.30;36.70;;;;;;5012215;28;20914;-80
2021/06/21 05:55:54;;;;;;;6.40;4.03;;;24.30;36.80;;;;;;4993771;28;20444;-80
2021/06/21 05:58:32;;;;;;;8.03;3.80;;;24.30;37.50;;;;;;5011784;28;20451;-79
2021/06/21 06:14:41;;;;;;;6.10;3.43;;;24.20;36.20;;;;;;4875338;29;20501;-80
2021/06/21 06:17:31;;;;;;;6.83;4.13;;;24.10;36.20;;;;;;4891024;29;20423;-80
2021/06/21 06:19:59;;;;;;;3.60;3.27;;;24.10;36.20;;;;;;4900476;29;20502;-79
2021/06/21 06:22:28;;;;;;;3.50;3.30;;;24.20;36.30;;;;;;4896895;29;20460;-80
2021/06/21 06:24:55;;;;;;;4.97;3.87;;;24.20;36.40;;;;;;4910155;29;20473;-79
2021/06/21 06:27:59;;;;;;;4.97;3.47;;;24.20;36.60;;;;;;4950624;28;20486;-79
2021/06/21 06:30:39;;;;;;;3.90;3.50;;;24.10;36.60;;;;;;4935339;29;20495;-80
2021/06/21 06:33:23;;;;;;;6.57;3.80;;;24.10;36.60;;;;;;4951716;29;20419;-79
2021/06/21 06:36:19;;;;;;;3.33;3.07;;;24.20;36.70;;;;;;5000602;28;20439;-81
2021/06/21 06:39:35;;;;;;;4.37;3.57;;;24.20;36.60;;;;;;5012485;28;20434;-79
2021/06/21 06:45:49;;;;;;;3.77;3.50;;;24.30;36.60;;;;;;4955540;28;20579;-80
2021/06/21 06:49:37;;;;;;;4.03;3.73;;;24.30;36.60;;;;;;5011877;28;20495;-80
2021/06/21 06:53:04;;;;;;;5.57;3.60;;;24.40;36.70;;;;;;4970568;28;20414;-80
2021/06/21 06:59:41;;;;;;;3.97;3.40;;;24.40;36.60;;;;;;4875413;29;20462;-79
2021/06/21 07:19:50;;;;;;;3.67;3.37;;;24.50;36.40;;;;;;4975719;28;20424;-80
2021/06/21 07:29:41;;;;;;;4.13;3.83;;;24.60;36.50;;;;;;4899577;29;20448;-81
2021/06/21 07:37:00;;;;;;;3.30;3.10;;;24.60;36.50;;;;;;4880822;29;20434;-80
2021/06/21 07:40:46;;;;;;;3.67;3.37;;;24.60;36.50;;;;;;4872970;29;20452;-78
2021/06/21 07:44:14;;;;;;;3.63;3.30;;;24.60;36.50;;;;;;4945783;29;20614;-80
2021/06/21 07:47:09;;;;;;;5.00;3.70;;;24.60;36.50;;;;;;4918593;29;20471;-80
2021/06/21 07:50:01;;;;;;;4.00;3.20;;;24.60;36.60;;;;;;4953264;29;20984;-81
2021/06/21 07:52:37;;;;;;;3.90;3.57;;;24.60;36.60;;;;;;4913482;29;20419;-80
2021/06/21 07:55:05;;;;;;;3.37;3.07;;;24.60;36.60;;;;;;4954890;28;20470;-78
2021/06/21 07:57:37;;;;;;;3.90;3.27;;;24.60;36.60;;;;;;4963163;28;20428;-80
2021/06/21 08:00:05;;;;;;;4.00;3.23;;;24.60;36.70;;;;;;5013556;28;20573;-79
2021/06/21 08:02:56;;;;;;;5.30;3.70;;;24.60;36.60;;;;;;4996755;28;20937;-79
2021/06/21 08:06:11;;;;;;;3.30;3.00;;;24.70;37.40;;;;;;4996629;28;20780;-79
2021/06/21 08:08:55;;;;;;;3.63;3.30;;;24.60;36.60;;;;;;4988965;28;20518;-79
2021/06/21 08:11:27;;;;;;;3.30;2.97;;;24.60;36.60;;;;;;4980231;28;20428;-80
2021/06/21 08:13:52;;;;;;;5.70;3.23;;;24.60;36.70;;;;;;5014160;28;20440;-79
2021/06/21 08:16:18;;;;;;;4.40;3.50;;;24.60;36.60;;;;;;4995781;28;20786;-79
2021/06/21 08:18:43;;;;;;;3.17;2.90;;;24.60;36.60;;;;;;5013670;28;20243;-80
2021/06/21 08:21:09;;;;;;;3.87;3.17;;;24.60;36.60;;;;;;5014301;28;20237;-78
2021/06/21 08:23:35;;;;;;;3.20;3.00;;;24.60;36.60;;;;;;5013424;28;20703;-79
2021/06/21 08:26:03;;;;;;;4.73;3.50;;;24.60;36.60;;;;;;5013396;28;20598;-80
2021/06/21 08:28:30;;;;;;;4.90;3.20;;;24.70;36.60;;;;;;5013799;28;20276;-80
2021/06/21 08:30:55;;;;;;;3.30;3.07;;;24.60;36.50;;;;;;5013545;28;20414;-79
2021/06/21 08:33:21;;;;;;;3.10;2.90;;;24.70;36.60;;;;;;5013824;28;20511;-78
2021/06/21 08:35:47;;;;;;;3.50;3.30;;;24.60;36.50;;;;;;5013615;28;20270;-79
2021/06/21 08:38:12;;;;;;;3.27;3.00;;;24.60;36.50;;;;;;5013397;28;20244;-79
2021/06/21 08:40:38;;;;;;;3.50;3.30;;;24.70;36.60;;;;;;5013562;28;20204;-80
2021/06/21 08:43:05;;;;;;;3.73;3.43;;;24.60;36.60;;;;;;5013960;28;20169;-81
2021/06/21 08:45:32;;;;;;;3.70;3.50;;;24.70;36.60;;;;;;5013654;28;20428;-79
2021/06/21 08:47:58;;;;;;;3.53;3.33;;;24.70;36.60;;;;;;4996128;28;20811;-80
2021/06/21 08:50:25;;;;;;;4.17;3.80;;;24.70;36.60;;;;;;5013563;28;20436;-81
2021/06/21 08:52:51;;;;;;;3.90;3.70;;;24.70;36.50;;;;;;4996020;28;20408;-81
2021/06/21 08:55:17;;;;;;;3.70;3.50;;;24.70;36.50;;;;;;4996367;28;20435;-81
2021/06/21 08:57:47;;;;;;;3.30;3.10;;;24.70;36.50;;;;;;4997884;28;20420;-80
2021/06/21 09:00:15;;;;;;;3.53;3.33;;;24.70;36.50;;;;;;5015200;28;20256;-79
2021/06/21 09:02:40;;;;;;;3.50;3.20;;;24.70;36.50;;;;;;5013130;28;20443;-80
2021/06/21 09:05:10;;;;;;;3.40;3.20;;;24.70;36.50;;;;;;5014303;28;20443;-79
2021/06/21 09:07:36;;;;;;;3.40;3.20;;;24.70;36.50;;;;;;5026461;28;20223;-80
2021/06/21 09:10:08;;;;;;;5.07;3.77;;;24.70;36.40;;;;;;5015396;28;20429;-79
2021/06/21 09:12:34;;;;;;;5.10;3.70;;;24.70;36.40;;;;;;5033675;28;20471;-79
2021/06/21 09:15:08;;;;;;;4.30;4.00;;;24.80;36.50;;;;;;5032939;28;21087;-77
2021/06/21 09:17:37;;;;;;;4.60;4.10;;;24.80;36.40;;;;;;5016084;28;20649;-78
2021/06/21 09:20:10;;;;;;;4.07;3.87;;;24.80;36.40;;;;;;5033382;28;20403;-79
2021/06/21 09:22:41;;;;;;;4.30;3.90;;;24.80;36.40;;;;;;5015500;28;20439;-80
2021/06/21 09:25:21;;;;;;;3.70;3.40;;;24.80;36.30;;;;;;5033081;28;21065;-80
2021/06/21 09:28:03;;;;;;;3.57;3.10;;;24.80;36.30;;;;;;5030366;28;20482;-79
2021/06/21 09:30:30;;;;;;;3.20;3.07;;;24.80;36.30;;;;;;4995519;28;20412;-80
2021/06/21 09:32:58;;;;;;;3.43;3.23;;;24.80;36.30;;;;;;5031396;28;20415;-78
2021/06/21 09:35:30;;;;;;;3.87;3.40;;;24.80;36.20;;;;;;5032630;28;20451;-79
2021/06/21 09:38:02;;;;;;;4.50;4.20;;;24.80;36.30;;;;;;5034452;28;20936;-80
2021/06/21 09:40:33;;;;;;;3.53;3.33;;;24.80;36.30;;;;;;5015556;28;20438;-79
2021/06/21 09:43:35;;;;;;;5.30;4.00;;;24.80;36.30;;;;;;5015112;28;20427;-79
2021/06/21 09:46:07;;;;;;;4.30;4.00;;;24.80;36.30;;;;;;5031706;28;20403;-79
2021/06/21 09:48:38;;;;;;;4.77;3.80;;;24.80;36.30;;;;;;5031958;28;20529;-77
2021/06/21 09:51:28;;;;;;;4.53;3.70;;;24.80;36.20;;;;;;5031715;28;20445;-79
2021/06/21 09:54:02;;;;;;;4.40;4.10;;;24.80;36.20;;;;;;5013787;28;20443;-79
2021/06/21 09:56:39;;;;;;;4.50;3.90;;;24.80;36.20;;;;;;5014026;28;20411;-79
2021/06/21 09:59:35;;;;;;;4.13;3.90;;;24.80;36.20;;;;;;5031710;28;20407;-79
2021/06/21 10:02:05;;;;;;;3.67;3.47;;;24.80;36.10;;;;;;5031478;28;20399;-79
2021/06/21 10:04:32;;;;;;;4.27;3.97;;;24.80;36.00;;;;;;5031716;28;20450;-80
2021/06/21 10:06:58;;;;;;;4.47;3.80;;;24.80;36.10;;;;;;5031155;28;20462;-78
2021/06/21 10:09:24;;;;;;;3.73;3.53;;;24.80;36.00;;;;;;5031080;28;20914;-79
2021/06/21 10:11:49;;;;;;;4.10;3.90;;;24.80;36.00;;;;;;5013925;28;20179;-80
2021/06/21 10:14:17;;;;;;;4.80;4.13;;;24.80;36.00;;;;;;5013552;28;20199;-80
2021/06/21 10:16:45;;;;;;;3.80;3.60;;;24.80;36.10;;;;;;5031672;28;20235;-81
2021/06/21 10:19:12;;;;;;;4.40;4.00;;;24.80;36.00;;;;;;5031682;28;20844;-80
2021/06/21 10:21:40;;;;;;;4.13;3.57;;;24.90;36.10;;;;;;5031606;28;20411;-82
2021/06/21 10:24:06;;;;;;;4.20;3.90;;;24.90;36.00;;;;;;5013498;28;20424;-78
2021/06/21 10:26:32;;;;;;;4.40;4.10;;;24.90;36.10;;;;;;5013509;28;20485;-80
2021/06/21 10:28:58;;;;;;;4.10;3.70;;;24.90;36.00;;;;;;5031546;28;20873;-79
2021/06/21 10:31:30;;;;;;;4.20;3.90;;;24.90;36.00;;;;;;5013817;28;20462;-79
2021/06/21 10:34:04;;;;;;;3.93;3.63;;;24.90;36.00;;;;;;5014021;28;20211;-81
2021/06/21 10:36:47;;;;;;;4.23;3.93;;;24.90;36.00;;;;;;5032762;28;20399;-80
2021/06/21 10:39:18;;;;;;;3.70;3.50;;;24.90;35.90;;;;;;5010521;28;20959;-79
2021/06/21 10:42:04;;;;;;;4.40;4.10;;;24.90;35.80;;;;;;5013758;28;20421;-79
2021/06/21 10:45:00;;;;;;;5.00;4.60;;;24.90;35.80;;;;;;5002327;28;20440;-79
2021/06/21 10:47:31;;;;;;;3.43;3.33;;;24.90;35.80;;;;;;5013700;28;20467;-80
2021/06/21 10:49:59;;;;;;;3.93;3.73;;;24.90;36.50;;;;;;5016051;28;20947;-80
2021/06/21 10:52:37;;;;;;;6.67;4.00;;;24.90;35.70;;;;;;5016743;28;20411;-81
2021/06/21 10:55:27;;;;;;;5.57;4.73;;;24.90;35.70;;;;;;5016215;28;20454;-80
2021/06/21 10:58:00;;;;;;;5.27;4.50;;;24.90;35.70;;;;;;4998598;28;20424;-81
2021/06/21 11:00:45;;;;;;;5.37;3.90;;;24.90;35.60;;;;;;5016416;28;20518;-81
2021/06/21 11:03:26;;;;;;;4.87;4.57;;;24.90;35.50;;;;;;5016583;28;20423;-82
2021/06/21 11:05:55;;;;;;;4.10;3.80;;;24.90;35.50;;;;;;4998695;28;20436;-80
2021/06/21 11:08:50;;;;;;;4.20;4.00;;;25.00;35.60;;;;;;5015688;28;20460;-81
2021/06/21 11:11:34;;;;;;;5.30;4.20;;;25.00;35.60;;;;;;4991300;28;20413;-81
2021/06/21 11:14:14;;;;;;;4.27;3.93;;;25.00;35.50;;;;;;4995730;28;20452;-79
2021/06/21 11:16:41;;;;;;;5.10;4.70;;;25.00;35.50;;;;;;4995427;28;20493;-81
2021/06/21 11:19:13;;;;;;;4.17;3.97;;;25.00;35.50;;;;;;4995761;28;20472;-81
2021/06/21 11:21:48;;;;;;;4.10;3.90;;;25.00;35.40;;;;;;4995580;28;20491;-80
2021/06/21 11:24:45;;;;;;;5.03;4.63;;;25.00;35.50;;;;;;4977853;28;20827;-80
2021/06/21 11:27:13;;;;;;;4.07;3.87;;;25.00;35.40;;;;;;4995506;28;20453;-82
2021/06/21 11:29:54;;;;;;;4.73;4.50;;;25.00;35.30;;;;;;4995026;28;20490;-81
2021/06/21 11:32:20;;;;;;;5.57;4.13;;;25.00;35.20;;;;;;4995627;28;20433;-82
2021/06/21 11:34:52;;;;;;;4.40;4.00;;;25.00;35.30;;;;;;4994941;28;20496;-81
2021/06/21 11:37:32;;;;;;;3.90;3.70;;;25.00;35.20;;;;;;4994914;28;20452;-80
2021/06/21 11:40:15;;;;;;;4.17;3.97;;;25.00;35.20;;;;;;5024435;28;20493;-82
2021/06/21 11:43:04;;;;;;;4.40;4.10;;;25.00;35.10;;;;;;4997108;28;20421;-80
2021/06/21 11:45:55;;;;;;;3.80;3.60;;;25.00;35.20;;;;;;4987153;28;20943;-81
2021/06/21 11:48:30;;;;;;;4.23;4.00;;;25.00;35.10;;;;;;5014593;28;20464;-80
2021/06/21 11:50:57;;;;;;;4.50;4.17;;;25.00;35.10;;;;;;5014668;28;20418;-83
2021/06/21 11:53:25;;;;;;;4.13;3.83;;;25.00;35.10;;;;;;4997696;28;20427;-81
2021/06/21 11:55:50;;;;;;;4.50;4.20;;;25.00;35.20;;;;;;5018142;28;20421;-82
2021/06/21 11:58:24;;;;;;;4.30;4.10;;;25.00;35.10;;;;;;5033838;28;20510;-80
2021/06/21 12:00:49;;;;;;;4.37;4.03;;;25.00;35.10;;;;;;5034499;28;20172;-81
2021/06/21 12:03:15;;;;;;;3.70;3.50;;;25.00;35.10;;;;;;5049933;28;20415;-83
2021/06/21 12:05:54;;;;;;;4.10;3.47;;;25.00;35.10;;;;;;5033962;28;20204;-81
2021/06/21 12:08:19;;;;;;;4.10;3.80;;;25.00;35.10;;;;;;5034080;28;20279;-81
2021/06/21 12:10:45;;;;;;;4.67;4.30;;;25.00;35.10;;;;;;5016352;28;20455;-82
2021/06/21 12:13:12;;;;;;;4.37;3.97;;;25.00;35.10;;;;;;5033960;28;20196;-82
2021/06/21 12:15:41;;;;;;;4.50;4.20;;;25.00;35.10;;;;;;5015719;28;20204;-81
2021/06/21 12:18:08;;;;;;;4.10;3.90;;;25.00;35.10;;;;;;5036048;28;20463;-81
2021/06/21 12:20:35;;;;;;;3.50;3.30;;;25.00;35.10;;;;;;5033771;28;20426;-82
2021/06/21 12:23:04;;;;;;;4.43;4.13;;;25.00;35.10;;;;;;5014584;28;20630;-79
2021/06/21 12:25:41;;;;;;;4.90;4.50;;;25.00;35.00;;;;;;5013441;28;20507;-80
2021/06/21 12:28:17;;;;;;;3.87;3.67;;;25.00;35.10;;;;;;5013570;28;20556;-79
2021/06/21 12:30:55;;;;;;;3.70;3.60;;;25.00;35.10;;;;;;5013610;28;20418;-80
2021/06/21 12:33:25;;;;;;;4.40;4.03;;;25.00;35.00;;;;;;5015730;28;20407;-79
2021/06/21 12:36:06;;;;;;;4.33;4.13;;;25.00;34.90;;;;;;5032921;28;20400;-81
2021/06/21 12:38:32;;;;;;;5.20;4.90;;;25.00;35.00;;;;;;5015885;28;20421;-80
2021/06/21 12:40:58;;;;;;;3.53;3.40;;;25.00;34.90;;;;;;5033404;28;20478;-80
2021/06/21 12:43:24;;;;;;;4.13;3.73;;;25.00;35.00;;;;;;5033007;28;20264;-82
2021/06/21 12:45:49;;;;;;;4.17;3.90;;;25.00;35.00;;;;;;5032860;28;20770;-81
2021/06/21 12:48:16;;;;;;;4.07;3.77;;;25.00;34.90;;;;;;5032563;28;20235;-79
2021/06/21 12:50:42;;;;;;;6.60;3.93;;;25.00;34.90;;;;;;5015467;28;20208;-79
2021/06/21 12:53:11;;;;;;;3.80;3.60;;;25.00;35.00;;;;;;5032486;28;20450;-79
2021/06/21 12:55:37;;;;;;;3.60;3.30;;;25.00;35.00;;;;;;5032917;28;20426;-81
2021/06/21 12:58:06;;;;;;;3.90;3.70;;;25.00;35.00;;;;;;5032622;28;20462;-81
2021/06/21 13:00:47;;;;;;;4.70;4.40;;;25.00;35.10;;;;;;5033165;28;20173;-81
2021/06/21 13:03:18;;;;;;;4.00;3.83;;;25.00;35.10;;;;;;5015302;28;20495;-80
2021/06/21 13:05:49;;;;;;;4.00;3.70;;;25.00;35.10;;;;;;5033478;28;20957;-79
2021/06/21 13:08:29;;;;;;;3.97;3.73;;;25.00;35.10;;;;;;5013935;28;21056;-79
2021/06/21 13:11:04;;;;;;;4.60;4.20;;;25.00;35.10;;;;;;4994268;28;20404;-81
2021/06/21 13:13:37;;;;;;;4.27;3.97;;;25.00;35.10;;;;;;4995835;28;20478;-80
2021/06/21 13:16:11;;;;;;;4.10;3.90;;;25.00;35.10;;;;;;5013577;28;20475;-80
2021/06/21 13:18:45;;;;;;;3.70;3.40;;;25.00;35.10;;;;;;5012660;28;20416;-80
2021/06/21 13:21:12;;;;;;;3.97;3.57;;;25.00;35.20;;;;;;5015416;28;20422;-80
2021/06/21 13:23:47;;;;;;;4.13;3.93;;;25.00;35.20;;;;;;5032445;28;20404;-80
2021/06/21 13:26:13;;;;;;;3.60;3.50;;;25.00;35.30;;;;;;5014807;28;20415;-80
2021/06/21 13:28:43;;;;;;;4.20;3.90;;;25.00;35.30;;;;;;5032776;28;20539;-82
2021/06/21 13:31:09;;;;;;;3.87;3.67;;;25.00;35.20;;;;;;5032206;28;20168;-79
2021/06/21 13:33:45;;;;;;;3.80;3.60;;;25.00;35.50;;;;;;5031655;28;20408;-79
2021/06/21 13:36:11;;;;;;;4.20;3.80;;;25.00;35.40;;;;;;5033182;28;20398;-80
2021/06/21 13:38:37;;;;;;;3.93;3.63;;;25.00;35.40;;;;;;5033880;28;20411;-79
2021/06/21 13:41:23;;;;;;;3.90;3.77;;;25.00;35.40;;;;;;5035494;28;20240;-82
2021/06/21 13:43:49;;;;;;;3.77;3.57;;;25.10;35.30;;;;;;5035905;28;20225;-81
2021/06/21 13:46:21;;;;;;;3.90;3.60;;;25.10;35.40;;;;;;5017060;28;20940;-81
2021/06/21 13:48:46;;;;;;;3.83;3.63;;;25.10;35.40;;;;;;5013635;28;20478;-79
2021/06/21 13:51:22;;;;;;;4.37;3.97;;;25.00;35.30;;;;;;5031243;28;20914;-79
2021/06/21 13:53:48;;;;;;;5.03;3.80;;;25.10;35.40;;;;;;5031594;28;20185;-80
2021/06/21 13:56:29;;;;;;;4.50;4.20;;;25.10;35.40;;;;;;4994665;28;20475;-81
2021/06/21 13:59:15;;;;;;;3.80;3.60;;;25.10;35.30;;;;;;4996473;28;20420;-80
2021/06/21 14:01:52;;;;;;;3.73;3.43;;;25.10;35.30;;;;;;5015108;28;20516;-81
2021/06/21 14:04:18;;;;;;;3.90;3.50;;;25.10;35.40;;;;;;5014799;28;20432;-80
2021/06/21 14:06:44;;;;;;;3.50;3.30;;;25.10;35.40;;;;;;5015172;28;20447;-79
2021/06/21 14:09:10;;;;;;;4.50;4.20;;;25.10;35.40;;;;;;5014954;28;20585;-79
2021/06/21 14:11:39;;;;;;;4.40;3.73;;;25.10;35.30;;;;;;4996327;28;20222;-80
2021/06/21 14:14:05;;;;;;;4.33;4.03;;;25.10;35.20;;;;;;5014045;28;20486;-80
2021/06/21 14:16:31;;;;;;;4.00;3.73;;;25.10;35.00;;;;;;4996537;28;20852;-81
2021/06/21 14:18:59;;;;;;;3.93;3.50;;;25.10;35.00;;;;;;5014228;28;20192;-79
2021/06/21 14:21:27;;;;;;;5.13;3.93;;;25.10;34.80;;;;;;5013668;28;20177;-81
2021/06/21 14:23:55;;;;;;;3.63;3.43;;;25.10;34.80;;;;;;5017989;28;20488;-81
2021/06/21 14:26:21;;;;;;;5.33;3.43;;;25.10;34.90;;;;;;5001306;28;20416;-81
2021/06/21 14:28:47;;;;;;;3.93;3.63;;;25.10;34.80;;;;;;5018661;28;20463;-80
2021/06/21 14:31:13;;;;;;;4.23;3.83;;;25.10;34.80;;;;;;5000791;28;20177;-79
2021/06/21 14:33:39;;;;;;;3.90;3.60;;;25.10;34.70;;;;;;5017493;28;20532;-80
2021/06/21 14:36:07;;;;;;;3.50;3.30;;;25.10;34.50;;;;;;5003103;28;20479;-81